createdAt,value
2022-12-08T00:07:17.822Z,17.98
2022-12-08T00:17:19.067Z,17.94
2022-12-08T00:27:20.346Z,17.98
2022-12-08T00:37:21.598Z,18.04
2022-12-08T00:47:24.945Z,18.07
2022-12-08T00:57:26.458Z,18.05
2022-12-08T01:07:27.687Z,18.11
2022-12-08T01:17:28.935Z,18.11
2022-12-08T01:27:30.143Z,18.13
2022-12-08T01:37:31.417Z,18.16
2022-12-08T01:47:32.640Z,18.18
2022-12-08T01:57:33.881Z,18.23
2022-12-08T02:07:35.117Z,18.23
2022-12-08T02:17:36.390Z,18.29
2022-12-08T02:27:37.639Z,18.25
2022-12-08T02:37:38.855Z,18.21
2022-12-08T02:47:40.111Z,18.18
2022-12-08T02:57:41.368Z,18.17
2022-12-08T03:07:42.649Z,18.19
2022-12-08T03:17:43.964Z,18.19
2022-12-08T03:27:45.218Z,18.10
2022-12-08T03:37:46.454Z,18.16
2022-12-08T03:47:47.699Z,18.10
2022-12-08T03:57:48.937Z,18.13
2022-12-08T04:07:50.245Z,18.11
2022-12-08T04:17:51.460Z,18.03
2022-12-08T04:27:52.852Z,18.08
2022-12-08T04:37:54.111Z,18.07
2022-12-08T04:47:55.363Z,18.10
2022-12-08T04:57:56.644Z,18.08
2022-12-08T05:07:57.959Z,18.08
2022-12-08T05:17:59.234Z,18.06
2022-12-08T05:28:24.579Z,18.07
2022-12-08T05:38:21.714Z,18.02
2022-12-08T05:48:22.927Z,18.03
2022-12-08T05:58:24.194Z,18.07
2022-12-08T06:08:25.543Z,18.02
2022-12-08T06:18:32.479Z,18.05
2022-12-08T06:28:34.028Z,18.07
2022-12-08T06:38:38.196Z,18.02
2022-12-08T06:48:41.742Z,18.08
2022-12-08T06:58:46.105Z,18.14
2022-12-08T07:08:50.208Z,18.14
2022-12-08T07:18:51.520Z,18.05
2022-12-08T07:28:52.781Z,18.08
2022-12-08T07:38:54.037Z,18.14
2022-12-08T07:48:55.397Z,18.10
2022-12-08T07:58:56.804Z,18.09
2022-12-08T08:08:58.099Z,18.09
2022-12-08T08:18:59.352Z,18.05
2022-12-08T08:29:00.564Z,17.98
2022-12-08T08:39:01.826Z,18.07
2022-12-08T08:49:03.092Z,18.04
2022-12-08T08:59:04.337Z,18.06
2022-12-08T09:09:05.685Z,18.05
2022-12-08T09:19:07.072Z,18.00
2022-12-08T09:29:08.331Z,18.07
2022-12-08T09:39:09.597Z,18.05
2022-12-08T09:49:10.844Z,18.04
2022-12-08T09:59:12.105Z,18.03
2022-12-08T10:09:16.117Z,18.05
2022-12-08T10:19:19.728Z,18.00
2022-12-08T10:29:21.006Z,17.99
2022-12-08T10:39:22.290Z,17.99
2022-12-08T10:49:23.527Z,18.03
2022-12-08T10:59:24.787Z,17.96
2022-12-08T11:09:26.034Z,18.02
2022-12-08T11:19:27.256Z,17.98
2022-12-08T11:29:28.521Z,17.97
2022-12-08T11:39:29.797Z,17.89
2022-12-08T11:49:31.080Z,17.90
2022-12-08T11:59:32.315Z,17.85
2022-12-08T12:09:33.595Z,17.90
2022-12-08T12:19:34.825Z,17.92
2022-12-08T12:29:36.116Z,17.94
2022-12-08T12:39:37.387Z,18.02
2022-12-08T12:49:38.759Z,18.07
2022-12-08T12:59:40.031Z,18.11
2022-12-08T13:09:41.310Z,18.10
2022-12-08T13:19:44.431Z,18.17
2022-12-08T13:29:50.259Z,18.14
2022-12-08T13:39:51.636Z,18.17
2022-12-08T13:51:23.767Z,18.18
2022-12-08T14:00:14.406Z,18.16
2022-12-08T14:10:15.819Z,18.19
2022-12-08T14:20:17.211Z,18.17
2022-12-08T14:30:18.609Z,18.29
2022-12-08T14:40:23.133Z,18.33
2022-12-08T14:50:25.077Z,18.32
2022-12-08T15:00:26.594Z,18.30
2022-12-08T15:10:28.259Z,18.32
2022-12-08T15:20:34.857Z,18.35
2022-12-08T15:30:37.850Z,18.36
2022-12-08T15:40:39.341Z,18.34
2022-12-08T15:50:40.586Z,18.41
2022-12-08T16:00:57.806Z,18.42
2022-12-08T16:11:34.575Z,18.40
2022-12-08T16:21:53.294Z,18.40
2022-12-08T16:31:42.125Z,18.46
2022-12-08T16:41:43.656Z,18.54
2022-12-08T16:51:45.196Z,18.49
2022-12-08T17:01:46.734Z,18.48
2022-12-08T17:11:48.209Z,18.36
2022-12-08T17:21:49.721Z,18.36
2022-12-08T17:31:51.025Z,18.39
2022-12-08T17:41:52.516Z,18.41
2022-12-08T17:51:53.776Z,18.32
2022-12-08T18:01:55.271Z,18.30
2022-12-08T18:11:56.687Z,18.27
2022-12-08T18:21:58.107Z,18.26
2022-12-08T18:31:59.394Z,18.26
2022-12-08T18:42:00.918Z,18.33
2022-12-08T18:52:02.422Z,18.26
2022-12-08T19:02:03.719Z,18.23
2022-12-08T19:12:05.301Z,18.25
2022-12-08T19:22:06.682Z,18.19
2022-12-08T19:32:07.937Z,18.12
2022-12-08T19:42:09.464Z,18.14
2022-12-08T19:52:10.817Z,18.08
2022-12-08T20:02:12.338Z,18.17
2022-12-08T20:12:13.713Z,18.10
2022-12-08T20:22:15.209Z,18.07
2022-12-08T20:32:16.732Z,18.05
2022-12-08T20:42:18.289Z,18.04
2022-12-08T20:52:19.593Z,17.90
2022-12-08T21:02:21.215Z,18.02
2022-12-08T21:12:23.125Z,17.86
2022-12-08T21:22:24.547Z,17.86
2022-12-08T21:32:30.095Z,17.92
2022-12-08T21:42:34.302Z,17.98
2022-12-08T21:52:36.345Z,17.92
2022-12-08T22:02:37.891Z,17.92
2022-12-08T22:12:39.594Z,17.90
2022-12-08T22:22:41.034Z,17.87
2022-12-08T22:32:42.817Z,17.88
2022-12-08T22:42:44.343Z,17.79
2022-12-08T22:52:45.808Z,17.83
2022-12-08T23:02:47.423Z,17.80
2022-12-08T23:12:49.126Z,17.80
2022-12-08T23:22:50.634Z,17.72
2022-12-08T23:32:52.026Z,17.76
2022-12-08T23:42:53.476Z,17.75
2022-12-08T23:52:54.717Z,17.70
